Données. Loja

Actualisé: vendredi, 4 septembre 2015 11:42 (heure officielle)
Ind. climatologique: 5582A -  Altitude (m): 594
Latitude37° 9' 40'' N - Longitude4° 9' 10'' O -  PositionVoir localisation
MunicipioLoja (Granada) - Ver predicción
Registros - de
Fecha y hora oficial

 

Temp. (°C)

 

Vit. vent (km/h)

 

Dir. vent

 

Rafale (km/h)

 

Dir. rafale

 

Prec. (mm)

 

Pression (hPa)

 

Tend. (hPa)

 

Humidité (%)

 

04/09/2015 11:00 17.6 10 9-Nord-OuestNord-Ouest 21 9-Nord-OuestNord-Ouest 0.0 947.1 1.3 59
04/09/2015 10:00 15.3 8 9-Nord-OuestNord-Ouest 32 9-Nord-OuestNord-Ouest 0.0 946.9 1.2 64
04/09/2015 09:00 13.6 5 9-Nord-OuestNord-Ouest 12 9-Nord-OuestNord-Ouest 0.0 946.7 1.3 70
04/09/2015 08:00 13.6 4 9-Nord-OuestNord-Ouest 14 8-OuestOuest 0.0 945.8 0.2 69
04/09/2015 07:00 15.5 7 8-OuestOuest 21 8-OuestOuest 0.0 945.7 0.3 65
04/09/2015 06:00 14.5 6 9-Nord-OuestNord-Ouest 22 8-OuestOuest 0.0 945.4 -0.3 64
04/09/2015 05:00 15.5 13 8-OuestOuest 22 8-OuestOuest 0.0 945.6 -0.5 62
04/09/2015 04:00 14.5 8 9-Nord-OuestNord-Ouest 18 9-Nord-OuestNord-Ouest 0.0 945.4 -0.9 59
04/09/2015 03:00 15.7 8 8-OuestOuest 13 8-OuestOuest 0.0 945.7 -0.6 54
04/09/2015 02:00 16.7 7 9-Nord-OuestNord-Ouest 15 9-Nord-OuestNord-Ouest 0.0 946.1 -0.1 49
04/09/2015 01:00 17.5 6 8-OuestOuest 19 8-OuestOuest 0.0 946.3 0.5 45
04/09/2015 00:00 19.0 9 8-OuestOuest 23 8-OuestOuest 0.0 946.3 0.9 42
03/09/2015 23:00 19.5 12 8-OuestOuest 28 8-OuestOuest 0.0 946.2 1.4 40
03/09/2015 22:00 19.7 6 8-OuestOuest 19 9-Nord-OuestNord-Ouest 0.0 945.8 1.2 42
03/09/2015 21:00 20.5 9 9-Nord-OuestNord-Ouest 26 9-Nord-OuestNord-Ouest 0.0 945.4 0.9 41
03/09/2015 20:00 21.9 13 9-Nord-OuestNord-Ouest 30 9-Nord-OuestNord-Ouest 0.0 944.8 0.2 38
03/09/2015 19:00 23.1 18 9-Nord-OuestNord-Ouest 32 9-Nord-OuestNord-Ouest 0.0 944.6 -0.4 37
03/09/2015 18:00 24.8 12 2-NordNord 31 9-Nord-OuestNord-Ouest 0.0 944.5 -0.9 33
03/09/2015 17:00 25.3 11 9-Nord-OuestNord-Ouest 30 9-Nord-OuestNord-Ouest 0.0 944.6 -1.1 37
03/09/2015 16:00 24.9 12 9-Nord-OuestNord-Ouest 31 9-Nord-OuestNord-Ouest 0.0 945.0 -1.4 39
03/09/2015 15:00 24.4 9 9-Nord-OuestNord-Ouest 25 9-Nord-OuestNord-Ouest 0.0 945.4 -1.3 40
03/09/2015 14:00 23.2 13 2-NordNord 26 3-Nord-EstNord-Est 0.0 945.7 -1.0 44
03/09/2015 13:00 22.9 6 9-Nord-OuestNord-Ouest 21 9-Nord-OuestNord-Ouest 0.0 946.4 -0.3 48
03/09/2015 12:00 20.9 7 2-NordNord 21 2-NordNord 0.0 946.7 0.0 54
First Page First Page First Page Last Page
Lineas por página
Página   de  
Partager:  
En esta página podrá acceder, en forma gráfica y en tabla, a las observaciones horarias de las últimas 24 horas, así como a los valores extremos y acumulados desde las 00 horas del día hasta la hora de actualización indicada, obtenidos en la red de estaciones de AEMET. También podrá acceder a los resúmenes diarios de estas estaciones en los últimos 7 días.

En el mapa aparecen estaciones con valor númerico y otras representadas por un punto. En las primeras, al pasar el ratón, aparece un desplegable con la información completa de la estación. Las estaciones representadas por un punto son estaciones de la red climatológica, con transmisión de datos superior a la hora, por lo que al seleccionarlas pueden no aparecer los últimos datos.

Los datos presentados han sido únicamente sometidos a controles automáticos de calidad en tiempo real, por lo que no puede garantizarse la ausencia de errores.
Toute utilisation et reproduction de l'information est autorisé sous réserve de mentionner AEMETen tant qu'auteur de celle-ci